Aeroporto :
LOGIN :

Iscrizione | Disclaimer

   EN    FR    IT 

 










Sommario :    VFR   VFR Marginale   IFR   IFR Intensivo   IFR Molto Intensivo
Visibilità : 
Base nubi : 
>= 8 km
>= 3000ft
5 / 8 km
1000 / 3000 ft
1500m / 5 km
500 / 1000 ft
800 / 1500m
200 / 500 ft
< 800m
< 200 ft
Simboli :   Temporali  Nebbia  Neve Forte  Precipitazioni Forti  Vento > 20 kt
SIGMETs :   Varie  Temporali  Ghiacco  Turbolenza  Onda orograficha  Ceneri Vulcaniche






- Altitudine del aeroporto : 17 ft
- Codice IATA : MPL


LFMT - Montpellier Méditerranée

ULTIMO METAR :
  • 172030Z AUTO 14015KT 9999 BKN026 19/18 Q1016 NOSIG

METARs OBSOLETI :
  • 172000Z AUTO 13014KT 9999 BKN025 BKN043 19/18 Q1016 NOSIG
  • 171930Z AUTO 13015KT 9999 BKN026 OVC040 19/18 Q1016 NOSIG
  • 171900Z AUTO 13014KT 9999 OVC025 19/18 Q1016 NOSIG
  • 171830Z AUTO 13015KT 9999 BKN026 BKN038 OVC100 19/18 Q1016 NOSIG
  • 171800Z AUTO 13015KT 9999 BKN029 OVC041 19/18 Q1015 NOSIG

TAF TAF LFMT
Valido dal 17 a 21 ore il 18 a 21 ore UTC


172000Z 1721/1821 14015KT 9999 SCT030 BKN045
BECMG 1801/1804 VRB05KT OVC012
TEMPO 1808/1815 RA
BECMG 1809/1812 BKN010 BKN020TCU
TEMPO 1812/1815 -SHRA
ATIS : +33 4 67 13 11 70



MetMap, La meteo Aeronautica in un colpo d'occhio ! - Copyright ORBIFLY Dicembre 2007 - Disclaimer

ORBIFLY MET'MAP TEAM :

Programmazione e sviluppo : Alexandra Zaïnal
Concezione e sviluppo : Baudouin d'Aumeries
Co-Programmazione e sviluppo : Marc-Olivier Méhu
Supporto tecnico e logistico : Manuel Goepfert
Aiuto per la traduzione : Arnaldo La Scala

Contatto : metmap@orbifly.com




FONTI E CREDITI :

   NOAA